Time;durP1;ratioP1;P1;durP2;ratioP2;P2;SDS_P1;SDS_P2;PMS_P1;PMS_P2;Temp;Humidity;BMP_temperature;BMP_pressure;BME280_temperature;BME280_humidity;BME280_pressure;Samples;Min_cycle;Max_cycle;Signal;HPM_P1;HPM_P2
2022/01/25 00:08:27;;;;;;;24.43;17.27;;;5.80;99.90;;;;;;6155708;23;20006;-86
2022/01/25 00:32:15;;;;;;;22.43;16.70;;;5.80;99.90;;;;;;6159454;23;20016;-87
2022/01/25 00:34:41;;;;;;;23.50;17.17;;;5.70;99.90;;;;;;6134556;23;20014;-88
2022/01/25 00:37:07;;;;;;;23.60;16.90;;;5.80;99.90;;;;;;6158431;23;20006;-87
2022/01/25 00:39:33;;;;;;;29.33;16.83;;;5.80;99.90;;;;;;6154115;23;20005;-87
2022/01/25 00:41:58;;;;;;;24.40;17.47;;;5.70;99.90;;;;;;6154037;23;20491;-87
2022/01/25 00:44:30;;;;;;;24.57;17.60;;;5.80;99.90;;;;;;6154058;23;20552;-87
2022/01/25 00:46:55;;;;;;;25.93;16.97;;;5.80;99.90;;;;;;6153783;23;20021;-87
2022/01/25 00:49:27;;;;;;;24.90;17.03;;;5.80;99.90;;;;;;6129249;23;20010;-87
2022/01/25 00:54:30;;;;;;;21.17;15.57;;;5.70;99.90;;;;;;6154049;23;20017;-86
2022/01/25 00:56:57;;;;;;;23.87;17.40;;;5.80;99.90;;;;;;6129545;23;20021;-87
2022/01/25 00:59:29;;;;;;;22.20;17.27;;;5.70;99.90;;;;;;6153646;23;20014;-86
2022/01/25 01:01:58;;;;;;;25.80;18.17;;;5.70;99.90;;;;;;6129204;23;20017;-86
2022/01/25 01:04:25;;;;;;;25.50;16.85;;;5.80;99.90;;;;;;6153891;23;20008;-87
2022/01/25 01:06:51;;;;;;;26.97;17.80;;;5.70;99.90;;;;;;6153054;23;20096;-87
2022/01/25 01:09:19;;;;;;;25.57;17.77;;;5.80;99.90;;;;;;6153595;23;20397;-86
2022/01/25 01:12:13;;;;;;;27.33;18.03;;;5.70;99.90;;;;;;6153635;23;20071;-87
2022/01/25 01:17:48;;;;;;;25.83;17.53;;;5.80;99.90;;;;;;6153915;23;20045;-87
2022/01/25 01:31:20;;;;;;;24.80;17.33;;;5.80;99.90;;;;;;6155408;23;20006;-87
2022/01/25 01:44:00;;;;;;;25.43;17.97;;;5.70;99.90;;;;;;6155037;23;20005;-87
2022/01/25 01:46:39;;;;;;;25.33;18.17;;;5.70;99.90;;;;;;6178408;23;20006;-87
2022/01/25 01:49:07;;;;;;;27.93;18.73;;;5.70;99.90;;;;;;6153473;23;20005;-87
2022/01/25 01:51:38;;;;;;;29.00;17.83;;;5.70;99.90;;;;;;6153399;23;19998;-87
2022/01/25 01:54:07;;;;;;;32.37;18.23;;;5.70;99.90;;;;;;6153421;23;20144;-87
2022/01/25 01:56:33;;;;;;;28.48;18.98;;;5.60;99.90;;;;;;6154949;23;20341;-88
2022/01/25 01:59:03;;;;;;;28.03;17.77;;;5.70;99.90;;;;;;6177589;23;20010;-87
2022/01/25 02:01:31;;;;;;;27.23;18.23;;;5.70;99.90;;;;;;6153111;23;20016;-87
2022/01/25 02:03:58;;;;;;;25.53;17.67;;;5.70;99.90;;;;;;6153659;23;20008;-86
2022/01/25 02:06:24;;;;;;;27.90;17.63;;;5.70;99.90;;;;;;6178255;23;20384;-87
2022/01/25 02:08:50;;;;;;;25.30;18.33;;;5.70;99.90;;;;;;6153139;23;20449;-87
2022/01/25 02:11:16;;;;;;;26.40;17.97;;;5.70;99.90;;;;;;6153070;23;20005;-87
2022/01/25 02:13:42;;;;;;;25.50;16.57;;;5.80;99.90;;;;;;6178161;23;20092;-87
2022/01/25 02:16:17;;;;;;;28.50;18.70;;;5.90;99.90;;;;;;6178112;23;20005;-87
2022/01/25 02:24:11;;;;;;;24.63;17.53;;;5.80;99.90;;;;;;6154639;23;20467;-87
2022/01/25 02:26:37;;;;;;;25.00;17.37;;;5.80;99.90;;;;;;6153136;23;20002;-87
2022/01/25 02:29:03;;;;;;;25.53;16.97;;;5.80;99.90;;;;;;6153017;23;20009;-87
2022/01/25 02:31:29;;;;;;;27.97;17.57;;;5.80;99.90;;;;;;6177748;23;20377;-87
2022/01/25 02:33:54;;;;;;;27.70;17.07;;;5.80;99.90;;;;;;6153101;23;20006;-87
2022/01/25 02:36:27;;;;;;;26.50;17.13;;;5.70;99.90;;;;;;6152984;23;20014;-87
2022/01/25 02:38:54;;;;;;;23.83;17.40;;;5.70;99.90;;;;;;6177821;23;20013;-87
2022/01/25 02:41:19;;;;;;;25.27;17.77;;;5.70;99.90;;;;;;6152893;23;20360;-87
2022/01/25 02:43:46;;;;;;;30.17;18.57;;;5.70;99.90;;;;;;6153054;23;20009;-87
2022/01/25 02:49:08;;;;;;;24.47;17.83;;;5.80;99.90;;;;;;6177864;23;20459;-87
2022/01/25 02:51:37;;;;;;;25.60;17.37;;;5.80;99.90;;;;;;6150575;23;20332;-87
2022/01/25 02:54:04;;;;;;;28.13;18.10;;;5.70;99.90;;;;;;6177971;23;20104;-87
2022/01/25 02:56:30;;;;;;;27.57;18.80;;;5.80;99.90;;;;;;6177745;23;20041;-86
2022/01/25 02:58:56;;;;;;;24.93;18.07;;;5.80;99.90;;;;;;6153020;23;20013;-87
2022/01/25 03:01:23;;;;;;;30.67;18.37;;;5.80;99.90;;;;;;6177844;23;20014;-87
2022/01/25 03:03:50;;;;;;;24.17;17.70;;;5.70;99.90;;;;;;6154555;23;20037;-87
2022/01/25 03:06:21;;;;;;;28.50;18.63;;;5.70;99.90;;;;;;6155545;23;20430;-88
2022/01/25 03:08:48;;;;;;;26.33;18.33;;;5.70;99.90;;;;;;6181277;23;20431;-87
2022/01/25 03:11:15;;;;;;;30.13;19.20;;;5.70;99.90;;;;;;6181864;23;20064;-87
2022/01/25 03:13:50;;;;;;;31.63;19.50;;;5.70;99.90;;;;;;6180802;23;20092;-87
2022/01/25 03:16:31;;;;;;;27.07;17.93;;;5.70;99.90;;;;;;6180316;23;20009;-87
2022/01/25 03:19:01;;;;;;;27.37;18.90;;;5.60;99.90;;;;;;6180189;23;20016;-87
2022/01/25 03:23:54;;;;;;;26.90;18.10;;;5.60;99.90;;;;;;6155268;23;20440;-86
2022/01/25 03:26:20;;;;;;;29.30;17.97;;;5.70;99.90;;;;;;6180227;23;20053;-88
2022/01/25 03:28:47;;;;;;;28.97;19.60;;;5.60;99.90;;;;;;6155444;23;20013;-87
2022/01/25 03:31:16;;;;;;;28.10;19.70;;;5.60;99.90;;;;;;6158964;23;20009;-87
2022/01/25 03:33:42;;;;;;;;;;;5.60;99.90;;;;;;6163629;23;20017;-87
2022/01/25 03:36:09;;;;;;;30.87;18.57;;;5.70;99.90;;;;;;6163740;23;19979;-88
2022/01/25 03:38:40;;;;;;;29.40;18.77;;;5.70;99.90;;;;;;6188294;23;20013;-87
2022/01/25 03:41:09;;;;;;;27.90;18.43;;;5.60;99.90;;;;;;6188978;23;20063;-88
2022/01/25 03:43:36;;;;;;;31.83;18.70;;;5.60;99.90;;;;;;6187271;23;20006;-88
2022/01/25 03:46:11;;;;;;;29.10;19.00;;;5.60;99.90;;;;;;6179753;23;20009;-87
2022/01/25 03:51:21;;;;;;;32.83;19.07;;;5.60;99.90;;;;;;6154942;23;20080;-87
2022/01/25 03:53:46;;;;;;;26.27;17.83;;;5.60;99.90;;;;;;6154658;23;20005;-87
2022/01/25 03:56:13;;;;;;;31.37;18.53;;;5.60;99.90;;;;;;6179048;23;20013;-87
2022/01/25 03:58:39;;;;;;;29.83;17.63;;;5.60;99.90;;;;;;6178772;23;20371;-88
2022/01/25 04:01:05;;;;;;;27.73;17.30;;;5.60;99.90;;;;;;6154003;23;20045;-87
2022/01/25 04:03:37;;;;;;;27.60;17.90;;;5.60;99.90;;;;;;6153929;23;20040;-87
2022/01/25 04:06:04;;;;;;;30.30;18.80;;;5.70;99.90;;;;;;6178575;23;20389;-87
2022/01/25 04:08:33;;;;;;;31.13;18.37;;;5.60;99.90;;;;;;6178657;23;20002;-87
2022/01/25 04:11:00;;;;;;;28.52;17.90;;;5.60;99.90;;;;;;6178860;23;20001;-87
2022/01/25 04:13:26;;;;;;;29.77;18.37;;;5.60;99.90;;;;;;6178997;23;20013;-87
2022/01/25 04:15:55;;;;;;;28.97;19.00;;;5.60;99.90;;;;;;6179039;23;20028;-86
2022/01/25 04:21:03;;;;;;;27.77;18.30;;;5.60;99.90;;;;;;6178751;23;20014;-87
2022/01/25 04:26:13;;;;;;;30.23;18.17;;;5.70;99.90;;;;;;6154432;23;20032;-87
2022/01/25 04:28:39;;;;;;;27.77;17.90;;;5.60;99.90;;;;;;6155655;23;20457;-87
2022/01/25 04:31:04;;;;;;;28.20;17.37;;;5.60;99.90;;;;;;6154086;23;20033;-87
2022/01/25 04:33:40;;;;;;;28.67;18.23;;;5.60;99.90;;;;;;6154125;23;20384;-87
2022/01/25 04:49:36;;;;;;;27.20;18.17;;;5.50;99.90;;;;;;6153856;23;20014;-86
2022/01/25 04:52:06;;;;;;;27.43;17.40;;;5.50;99.90;;;;;;6152497;23;20009;-89
2022/01/25 04:54:44;;;;;;;29.40;18.80;;;5.50;99.90;;;;;;6176977;23;20011;-85
2022/01/25 04:59:48;;;;;;;29.73;17.67;;;5.50;99.90;;;;;;6154871;23;20021;-85
2022/01/25 05:04:55;;;;;;;27.87;18.43;;;5.60;99.90;;;;;;6152947;23;20005;-87
2022/01/25 05:09:53;;;;;;;28.53;17.90;;;5.60;99.90;;;;;;6152540;23;20312;-85
2022/01/25 05:12:31;;;;;;;29.80;17.90;;;5.60;99.90;;;;;;6152463;23;20614;-86
2022/01/25 05:15:01;;;;;;;27.77;17.30;;;5.60;99.90;;;;;;6151064;23;20127;-86
2022/01/25 05:17:43;;;;;;;32.07;18.27;;;5.70;99.90;;;;;;6152627;23;20001;-85
2022/01/25 05:22:53;;;;;;;31.90;18.10;;;5.60;99.90;;;;;;6151995;23;20017;-89
2022/01/25 05:25:19;;;;;;;27.77;18.20;;;5.50;99.90;;;;;;6152119;23;20344;-90
2022/01/25 05:27:44;;;;;;;30.50;18.33;;;5.50;99.90;;;;;;6151751;23;20421;-89
2022/01/25 05:30:10;;;;;;;30.87;18.77;;;5.50;99.90;;;;;;6127048;23;20009;-89
2022/01/25 05:32:36;;;;;;;29.60;17.50;;;5.50;99.90;;;;;;6127293;23;20063;-89
2022/01/25 05:35:03;;;;;;;29.97;19.13;;;5.50;99.90;;;;;;6151750;23;20091;-89
2022/01/25 05:37:32;;;;;;;31.97;18.40;;;5.40;99.90;;;;;;6151542;23;20072;-85
2022/01/25 05:40:00;;;;;;;32.15;19.30;;;5.50;99.90;;;;;;6126771;23;20021;-89
2022/01/25 05:47:20;;;;;;;29.90;17.93;;;5.90;99.90;;;;;;6127060;23;20475;-89
2022/01/25 05:49:46;;;;;;;28.27;17.83;;;6.20;99.90;;;;;;6127091;23;20052;-88
2022/01/25 05:52:12;;;;;;;28.40;17.30;;;6.20;99.90;;;;;;6151924;23;20457;-89
2022/01/25 05:54:39;;;;;;;30.83;18.03;;;5.90;99.90;;;;;;6153212;23;20012;-90
2022/01/25 05:57:05;;;;;;;27.40;17.20;;;6.00;99.90;;;;;;6127412;23;20183;-88
2022/01/25 05:59:31;;;;;;;27.97;18.47;;;5.90;99.90;;;;;;6151504;23;20017;-87
2022/01/25 06:01:57;;;;;;;31.00;17.97;;;5.80;99.90;;;;;;6152159;23;20032;-87
2022/01/25 06:04:24;;;;;;;28.07;17.60;;;5.70;99.90;;;;;;6127015;23;20009;-89
2022/01/25 06:06:50;;;;;;;28.17;17.37;;;5.70;99.90;;;;;;6150878;23;20010;-88
2022/01/25 06:09:17;;;;;;;28.20;17.40;;;5.70;99.90;;;;;;6151715;23;20010;-89
2022/01/25 06:11:43;;;;;;;26.30;17.67;;;5.60;99.90;;;;;;6155152;23;20006;-85
2022/01/25 06:14:09;;;;;;;30.97;17.97;;;5.60;99.90;;;;;;6177348;23;20009;-87
2022/01/25 06:16:35;;;;;;;29.53;18.07;;;5.60;99.90;;;;;;6154070;23;20016;-87
2022/01/25 06:19:01;;;;;;;31.17;18.77;;;5.50;99.90;;;;;;6152953;23;20028;-87
2022/01/25 06:21:27;;;;;;;32.03;17.97;;;5.50;99.90;;;;;;6177286;23;20009;-88
2022/01/25 06:23:53;;;;;;;28.10;17.73;;;5.50;99.90;;;;;;6176748;23;20152;-92
2022/01/25 06:26:19;;;;;;;27.93;17.27;;;5.50;99.90;;;;;;6153159;23;20368;-90
2022/01/25 06:28:45;;;;;;;28.53;17.53;;;5.50;99.90;;;;;;6177414;23;20013;-88
2022/01/25 06:31:12;;;;;;;27.57;17.67;;;5.60;99.90;;;;;;6159986;23;20117;-89
2022/01/25 06:33:41;;;;;;;31.00;18.07;;;5.60;99.90;;;;;;6184924;23;20006;-91
2022/01/25 06:36:07;;;;;;;;;;;5.50;99.90;;;;;;6185239;23;20028;-86
2022/01/25 06:38:33;;;;;;;28.20;17.57;;;5.50;99.90;;;;;;6181466;23;19905;-86
2022/01/25 06:40:58;;;;;;;30.07;17.37;;;5.40;99.90;;;;;;6150802;23;20002;-85
2022/01/25 06:43:24;;;;;;;29.23;17.67;;;5.40;99.90;;;;;;6150400;23;20309;-85
2022/01/25 06:45:56;;;;;;;32.10;17.83;;;5.40;99.90;;;;;;6151281;23;20010;-85
2022/01/25 06:48:23;;;;;;;33.33;18.20;;;5.40;99.90;;;;;;6174958;23;20012;-85
2022/01/25 06:50:49;;;;;;;28.07;17.40;;;5.40;99.90;;;;;;6150857;23;20060;-85
2022/01/25 06:53:14;;;;;;;29.67;17.73;;;5.30;99.90;;;;;;6176110;23;20009;-85
2022/01/25 06:55:41;;;;;;;31.50;18.63;;;5.40;99.90;;;;;;6176882;23;20033;-85
2022/01/25 06:58:07;;;;;;;28.43;18.20;;;5.40;99.90;;;;;;6177123;23;20009;-85
2022/01/25 07:00:34;;;;;;;26.93;17.37;;;5.40;99.90;;;;;;6176648;23;20420;-85
2022/01/25 07:02:59;;;;;;;32.57;18.67;;;5.40;99.90;;;;;;6176689;23;20010;-85
2022/01/25 07:05:26;;;;;;;33.47;18.80;;;5.40;99.90;;;;;;6151731;23;20009;-85
2022/01/25 07:07:52;;;;;;;29.20;17.30;;;5.40;99.90;;;;;;6152089;23;20017;-85
2022/01/25 07:10:18;;;;;;;28.80;18.37;;;5.40;99.90;;;;;;6151713;23;20064;-85
2022/01/25 07:12:44;;;;;;;31.93;18.57;;;5.30;99.90;;;;;;6153346;23;20005;-86
2022/01/25 07:15:11;;;;;;;29.13;18.30;;;5.30;99.90;;;;;;6154979;23;20017;-86
2022/01/25 07:17:37;;;;;;;32.60;18.13;;;5.30;99.90;;;;;;6176956;23;20010;-85
2022/01/25 07:20:06;;;;;;;33.07;18.50;;;5.40;99.90;;;;;;6177065;23;20385;-85
2022/01/25 07:22:32;;;;;;;38.38;19.83;;;5.40;99.90;;;;;;6154713;23;20018;-85
2022/01/25 07:24:58;;;;;;;39.37;20.63;;;5.40;99.90;;;;;;6151026;23;20023;-86
2022/01/25 07:27:24;;;;;;;31.73;19.57;;;5.30;99.90;;;;;;6151756;23;20390;-86
2022/01/25 07:29:50;;;;;;;33.20;19.60;;;5.40;99.90;;;;;;6152888;23;19997;-85
2022/01/25 07:32:15;;;;;;;35.80;21.07;;;5.40;99.90;;;;;;6151452;23;20092;-86
2022/01/25 07:34:41;;;;;;;35.13;19.93;;;5.30;99.90;;;;;;6151464;23;20393;-85
2022/01/25 07:37:07;;;;;;;33.60;19.90;;;5.40;99.90;;;;;;6151958;23;20014;-85
2022/01/25 07:39:33;;;;;;;38.50;19.67;;;5.40;99.90;;;;;;6150948;23;20071;-87
2022/01/25 07:41:59;;;;;;;36.47;19.93;;;5.40;99.90;;;;;;6151343;23;20013;-85
2022/01/25 07:44:36;;;;;;;36.87;19.53;;;5.40;99.90;;;;;;6175651;23;20013;-86
2022/01/25 07:47:03;;;;;;;35.53;20.63;;;5.40;99.90;;;;;;6176717;23;20009;-86
2022/01/25 07:49:29;;;;;;;35.10;20.07;;;5.40;99.90;;;;;;6153181;23;20241;-85
2022/01/25 07:51:55;;;;;;;34.43;19.27;;;5.40;99.90;;;;;;6151597;23;20006;-86
2022/01/25 07:54:21;;;;;;;34.07;20.17;;;5.40;99.90;;;;;;6151652;23;20060;-85
2022/01/25 07:56:47;;;;;;;36.13;20.07;;;5.40;99.90;;;;;;6178159;23;20026;-85
2022/01/25 07:59:13;;;;;;;32.93;18.53;;;5.40;99.90;;;;;;6178083;23;20036;-85
2022/01/25 08:01:40;;;;;;;36.50;19.77;;;5.40;99.90;;;;;;6153490;23;20034;-87
2022/01/25 08:04:10;;;;;;;37.47;19.90;;;5.40;99.90;;;;;;6177882;23;20016;-86
2022/01/25 08:06:37;;;;;;;35.80;19.67;;;5.40;99.90;;;;;;6153721;23;20421;-87
2022/01/25 08:09:07;;;;;;;35.17;19.37;;;5.40;99.90;;;;;;6177521;23;20010;-89
2022/01/25 08:11:35;;;;;;;34.37;20.40;;;5.40;99.90;;;;;;6178105;23;20409;-87
2022/01/25 08:14:12;;;;;;;34.97;19.83;;;5.30;99.90;;;;;;6179144;23;20005;-86
2022/01/25 08:16:43;;;;;;;36.07;19.47;;;5.40;99.90;;;;;;6153531;23;20017;-85
2022/01/25 08:19:09;;;;;;;35.00;18.70;;;5.40;99.90;;;;;;6177460;23;20009;-90
2022/01/25 08:21:40;;;;;;;33.70;19.13;;;5.30;99.90;;;;;;6153581;23;20113;-83
2022/01/25 08:24:07;;;;;;;36.70;19.97;;;5.40;99.90;;;;;;6151977;23;20420;-88
2022/01/25 08:26:33;;;;;;;38.27;20.73;;;5.30;99.90;;;;;;6178432;23;20005;-87
2022/01/25 08:28:59;;;;;;;35.43;19.37;;;5.40;99.90;;;;;;6151895;23;20001;-88
2022/01/25 08:31:25;;;;;;;36.27;19.53;;;5.40;99.90;;;;;;6152410;23;20034;-87
2022/01/25 08:33:52;;;;;;;37.67;21.80;;;5.40;99.90;;;;;;6152336;23;20014;-89
2022/01/25 08:36:18;;;;;;;35.93;19.60;;;5.30;99.90;;;;;;6178249;23;20020;-84
2022/01/25 08:38:44;;;;;;;36.73;20.13;;;5.30;99.90;;;;;;6153776;23;20009;-87
2022/01/25 08:41:11;;;;;;;36.07;19.00;;;5.30;99.90;;;;;;6153996;23;20029;-89
2022/01/25 08:43:37;;;;;;;33.97;18.83;;;5.30;99.90;;;;;;6152780;23;20009;-89
2022/01/25 08:46:03;;;;;;;37.93;20.37;;;5.40;99.90;;;;;;6177708;23;20013;-88
2022/01/25 08:48:29;;;;;;;39.17;20.37;;;5.40;99.90;;;;;;6152374;23;20100;-91
2022/01/25 08:50:58;;;;;;;38.07;19.77;;;5.40;99.90;;;;;;6180402;23;20016;-91
2022/01/25 08:53:25;;;;;;;34.37;19.17;;;5.40;99.90;;;;;;6180835;23;20009;-91
2022/01/25 08:55:50;;;;;;;35.80;19.83;;;5.40;99.90;;;;;;6154237;23;20137;-91
2022/01/25 08:58:16;;;;;;;32.93;19.43;;;5.40;99.90;;;;;;6154434;23;20337;-90
2022/01/25 09:00:42;;;;;;;36.37;19.53;;;5.30;99.90;;;;;;6152425;23;20017;-87
2022/01/25 09:03:08;;;;;;;37.00;20.10;;;5.40;99.90;;;;;;6177349;23;20013;-88
2022/01/25 09:05:34;;;;;;;36.17;19.43;;;5.30;99.90;;;;;;6152123;23;20016;-88
2022/01/25 09:08:01;;;;;;;39.80;20.53;;;5.30;99.90;;;;;;6177428;23;20092;-88
2022/01/25 09:10:28;;;;;;;42.63;21.27;;;5.30;99.90;;;;;;6178855;23;20028;-89
2022/01/25 09:12:54;;;;;;;37.33;20.60;;;5.40;99.90;;;;;;6177555;23;20060;-87
2022/01/25 09:15:21;;;;;;;35.80;19.97;;;5.30;99.90;;;;;;6152063;23;20051;-87
2022/01/25 09:17:48;;;;;;;40.47;21.13;;;5.30;99.90;;;;;;6153357;23;20041;-87
2022/01/25 09:20:14;;;;;;;40.13;20.80;;;5.30;99.90;;;;;;6151920;23;20005;-86
2022/01/25 09:22:40;;;;;;;42.40;21.07;;;5.40;99.90;;;;;;6153973;23;20040;-86
2022/01/25 09:25:06;;;;;;;38.47;21.07;;;5.40;99.90;;;;;;6176320;23;20539;-86
2022/01/25 09:27:32;;;;;;;41.30;21.50;;;5.50;99.90;;;;;;6152403;23;20067;-87
2022/01/25 09:29:58;;;;;;;40.40;20.77;;;5.40;99.90;;;;;;6151943;23;20453;-86
2022/01/25 09:32:23;;;;;;;37.03;20.60;;;5.40;99.90;;;;;;6177027;23;20318;-85
2022/01/25 09:34:49;;;;;;;37.53;20.37;;;5.40;99.90;;;;;;6176759;23;20439;-86
2022/01/25 09:37:15;;;;;;;38.30;20.20;;;5.50;99.90;;;;;;6152238;23;20364;-85
2022/01/25 09:39:41;;;;;;;37.07;21.13;;;5.60;99.90;;;;;;6176193;23;20041;-86
2022/01/25 09:42:09;;;;;;;37.57;20.33;;;5.60;99.90;;;;;;6153171;23;20112;-85
2022/01/25 09:44:40;;;;;;;37.90;20.53;;;5.60;99.90;;;;;;6152428;23;20009;-87
2022/01/25 09:47:07;;;;;;;36.70;21.00;;;5.60;99.90;;;;;;6177262;23;20438;-85
2022/01/25 09:49:34;;;;;;;41.03;22.37;;;5.60;99.90;;;;;;6152045;23;20140;-85
2022/01/25 09:52:05;;;;;;;40.57;21.20;;;5.60;99.90;;;;;;6176676;23;20424;-90
2022/01/25 09:54:34;;;;;;;39.73;20.97;;;5.60;99.90;;;;;;6151825;23;20101;-89
2022/01/25 09:57:00;;;;;;;40.33;20.67;;;5.70;99.90;;;;;;6151988;23;20096;-87
2022/01/25 09:59:27;;;;;;;40.07;21.47;;;5.70;99.90;;;;;;6150649;23;20008;-90
2022/01/25 10:01:56;;;;;;;37.63;20.03;;;5.70;99.90;;;;;;6151190;23;20010;-87
2022/01/25 10:04:34;;;;;;;37.40;20.63;;;5.70;99.90;;;;;;6151501;23;20298;-86
2022/01/25 10:07:00;;;;;;;39.23;21.20;;;5.70;99.90;;;;;;6176663;23;20108;-88
2022/01/25 10:09:28;;;;;;;41.93;21.47;;;5.60;99.90;;;;;;6175456;23;20024;-88
2022/01/25 10:11:55;;;;;;;37.03;20.17;;;5.60;99.90;;;;;;6151327;23;20460;-86
2022/01/25 10:14:23;;;;;;;43.57;21.60;;;5.60;99.90;;;;;;6151058;23;20064;-87
2022/01/25 10:16:56;;;;;;;43.03;21.73;;;5.70;99.90;;;;;;6176567;23;20321;-87
2022/01/25 10:19:25;;;;;;;41.87;21.70;;;5.70;99.90;;;;;;6175193;23;20076;-88
2022/01/25 10:21:52;;;;;;;41.08;21.17;;;5.70;99.90;;;;;;6151155;23;20021;-87
2022/01/25 10:24:20;;;;;;;40.43;21.00;;;5.70;99.90;;;;;;6151145;23;20052;-87
2022/01/25 10:26:57;;;;;;;40.17;20.77;;;5.70;99.90;;;;;;6151586;23;20001;-88
2022/01/25 10:29:31;;;;;;;41.40;20.77;;;5.60;99.90;;;;;;6175323;23;20392;-88
2022/01/25 10:32:06;;;;;;;40.83;22.20;;;5.60;99.90;;;;;;6175971;23;20004;-87
2022/01/25 10:34:37;;;;;;;49.17;22.20;;;5.60;99.90;;;;;;6175827;23;20088;-87
2022/01/25 10:37:24;;;;;;;45.00;22.10;;;5.70;99.90;;;;;;6151705;23;20001;-87
2022/01/25 10:39:52;;;;;;;47.80;23.40;;;5.60;99.90;;;;;;6150352;23;20014;-87
2022/01/25 10:42:24;;;;;;;46.73;23.33;;;5.60;99.90;;;;;;6150918;23;20298;-87
2022/01/25 10:45:00;;;;;;;45.50;23.90;;;5.60;99.90;;;;;;6150887;23;20009;-86
2022/01/25 10:47:51;;;;;;;45.60;23.17;;;5.60;99.90;;;;;;6151586;23;20441;-87
2022/01/25 10:50:23;;;;;;;43.67;22.90;;;5.60;99.90;;;;;;6151374;23;20305;-88
2022/01/25 10:53:07;;;;;;;45.67;23.77;;;5.60;99.90;;;;;;6151416;23;20002;-88
2022/01/25 10:55:44;;;;;;;47.87;23.67;;;5.60;99.90;;;;;;6175818;23;20013;-87
2022/01/25 10:58:11;;;;;;;47.27;23.90;;;5.60;99.90;;;;;;6175498;23;20036;-87
2022/01/25 11:00:41;;;;;;;40.43;21.13;;;5.60;99.90;;;;;;6151592;23;20009;-87
2022/01/25 11:03:07;;;;;;;50.47;22.60;;;5.70;99.90;;;;;;6176816;23;20013;-88
2022/01/25 11:05:45;;;;;;;48.33;24.20;;;5.80;99.90;;;;;;6176402;23;20020;-87
2022/01/25 11:08:19;;;;;;;51.10;24.30;;;5.70;99.90;;;;;;6151190;23;20370;-88
2022/01/25 11:10:53;;;;;;;46.57;22.50;;;5.70;99.90;;;;;;6177163;23;20077;-88
2022/01/25 11:13:35;;;;;;;50.07;22.93;;;5.70;99.90;;;;;;6150860;23;20016;-87
2022/01/25 11:16:07;;;;;;;46.73;24.20;;;5.80;99.90;;;;;;6176051;23;20356;-87
2022/01/25 11:18:34;;;;;;;47.07;23.07;;;5.70;99.90;;;;;;6150426;23;20087;-87
2022/01/25 11:21:05;;;;;;;51.07;23.70;;;5.70;99.90;;;;;;6175554;23;20358;-88
2022/01/25 11:23:33;;;;;;;64.47;29.53;;;5.70;99.90;;;;;;6150471;23;20014;-90
2022/01/25 11:26:02;;;;;;;51.60;25.30;;;5.70;99.90;;;;;;6151154;23;20010;-87
2022/01/25 11:28:30;;;;;;;52.95;25.73;;;5.70;99.90;;;;;;6150255;23;20010;-88
2022/01/25 11:31:01;;;;;;;50.70;24.47;;;5.70;99.90;;;;;;6152188;23;20006;-88
2022/01/25 11:33:28;;;;;;;48.63;23.67;;;5.70;99.90;;;;;;6128716;23;20017;-88
2022/01/25 11:35:54;;;;;;;56.97;25.27;;;5.70;99.90;;;;;;6178571;23;20064;-88
2022/01/25 11:38:38;;;;;;;56.07;26.33;;;5.70;99.90;;;;;;6152218;23;20096;-87
2022/01/25 11:41:09;;;;;;;54.43;26.10;;;5.70;99.90;;;;;;6177573;23;20013;-87
2022/01/25 11:43:35;;;;;;;52.50;25.33;;;5.70;99.90;;;;;;6177616;23;20621;-87
2022/01/25 11:46:04;;;;;;;53.17;25.03;;;5.60;99.90;;;;;;6160042;23;20208;-88
2022/01/25 11:48:37;;;;;;;55.33;26.75;;;5.70;99.90;;;;;;6177548;23;20010;-87
2022/01/25 11:51:10;;;;;;;50.47;24.93;;;5.70;99.90;;;;;;6152424;23;20005;-88
2022/01/25 11:53:41;;;;;;;50.17;24.43;;;5.60;99.90;;;;;;6177456;23;20017;-88
2022/01/25 11:56:09;;;;;;;52.13;25.20;;;5.80;99.90;;;;;;6156022;23;20056;-87
2022/01/25 11:58:36;;;;;;;48.70;23.67;;;5.70;99.90;;;;;;6177000;23;20071;-87
2022/01/25 12:01:14;;;;;;;47.97;24.13;;;5.80;99.90;;;;;;6153156;23;20259;-86
2022/01/25 12:03:44;;;;;;;47.53;24.00;;;5.80;99.90;;;;;;6153255;23;20005;-91
2022/01/25 12:06:26;;;;;;;52.17;23.60;;;5.80;99.90;;;;;;6154329;23;20019;-89
2022/01/25 12:09:18;;;;;;;58.97;28.90;;;5.70;99.90;;;;;;6159040;23;20020;-89
2022/01/25 12:11:58;;;;;;;44.20;23.33;;;5.70;99.90;;;;;;6177901;23;20009;-86
2022/01/25 12:14:38;;;;;;;50.30;25.07;;;5.70;99.90;;;;;;6177155;23;20020;-86
2022/01/25 12:17:03;;;;;;;44.60;22.90;;;5.70;99.90;;;;;;6152784;23;20017;-87
2022/01/25 12:19:51;;;;;;;48.43;23.60;;;5.80;99.90;;;;;;6177648;23;20010;-87
2022/01/25 12:27:44;;;;;;;50.00;24.77;;;5.80;99.90;;;;;;6159093;23;20052;-87
2022/01/25 12:30:25;;;;;;;53.80;25.90;;;5.80;99.90;;;;;;6152843;23;20006;-88
2022/01/25 12:33:04;;;;;;;49.87;24.30;;;5.80;99.90;;;;;;6178851;23;20014;-87
2022/01/25 12:35:38;;;;;;;50.90;24.90;;;5.90;99.90;;;;;;6152271;23;20134;-87
2022/01/25 12:38:25;;;;;;;51.73;25.33;;;5.90;99.90;;;;;;6176725;23;20021;-87
2022/01/25 12:40:55;;;;;;;49.90;24.40;;;5.90;99.90;;;;;;6179946;23;20021;-88
2022/01/25 12:43:24;;;;;;;47.90;24.33;;;5.90;99.90;;;;;;6179836;23;20014;-88
2022/01/25 12:45:59;;;;;;;53.53;25.00;;;5.90;99.90;;;;;;6155488;23;20064;-87
2022/01/25 12:51:42;;;;;;;57.93;26.00;;;5.80;99.90;;;;;;6172510;23;20024;-85
2022/01/25 14:24:52;;;;;;;51.73;23.97;;;5.70;99.90;;;;;;6164232;23;20009;-85
2022/01/25 14:27:32;;;;;;;53.60;25.57;;;5.70;99.90;;;;;;6144820;23;20029;-85
2022/01/25 14:30:08;;;;;;;51.80;24.03;;;5.70;99.90;;;;;;6143944;23;20017;-84
2022/01/25 14:33:16;;;;;;;49.33;24.00;;;5.70;99.90;;;;;;6124974;23;20049;-85
2022/01/25 14:36:04;;;;;;;52.57;23.93;;;5.80;99.90;;;;;;6108107;23;20245;-84
2022/01/25 14:38:38;;;;;;;47.50;22.57;;;5.70;99.90;;;;;;6058051;23;20010;-85
2022/01/25 14:41:12;;;;;;;51.50;24.17;;;5.70;99.90;;;;;;6083299;23;20034;-85
2022/01/25 14:43:55;;;;;;;57.60;24.83;;;5.80;99.90;;;;;;6106648;23;20030;-86
2022/01/25 14:46:40;;;;;;;54.50;25.97;;;5.70;99.90;;;;;;6107422;23;20043;-86
2022/01/25 14:49:13;;;;;;;54.30;25.93;;;5.70;99.90;;;;;;6104118;23;20417;-85
2022/01/25 14:51:51;;;;;;;49.57;22.83;;;5.70;99.90;;;;;;6105790;23;20085;-87
2022/01/25 14:54:32;;;;;;;51.72;25.00;;;5.70;99.90;;;;;;6082496;23;20034;-86
2022/01/25 14:57:02;;;;;;;55.87;25.50;;;5.70;99.90;;;;;;6109908;23;20118;-86
2022/01/25 14:59:35;;;;;;;55.53;24.70;;;5.80;99.90;;;;;;6082202;23;20010;-85
2022/01/25 15:02:11;;;;;;;54.53;25.17;;;5.80;99.90;;;;;;6058806;23;20046;-86
2022/01/25 15:04:38;;;;;;;57.17;25.60;;;5.80;99.90;;;;;;6103783;23;20030;-85
2022/01/25 15:07:18;;;;;;;52.57;24.70;;;5.80;99.90;;;;;;6102654;23;20437;-91
2022/01/25 15:09:54;;;;;;;53.33;25.20;;;5.80;99.90;;;;;;6074821;23;20093;-87
2022/01/25 15:12:25;;;;;;;53.23;25.33;;;5.70;99.90;;;;;;6105088;23;20030;-83
2022/01/25 15:15:14;;;;;;;57.27;26.00;;;5.70;99.90;;;;;;6079977;23;20369;-85
2022/01/25 15:17:54;;;;;;;55.37;24.57;;;5.70;99.90;;;;;;6104828;23;20010;-84
2022/01/25 15:20:52;;;;;;;55.47;25.33;;;5.70;99.90;;;;;;6105796;23;20028;-85
2022/01/25 15:26:53;;;;;;;55.77;24.50;;;5.60;99.90;;;;;;6105596;23;20530;-84
2022/01/25 15:29:23;;;;;;;;;;;5.70;99.90;;;;;;6100229;23;20014;-84
2022/01/25 15:31:51;;;;;;;52.17;23.77;;;5.70;99.90;;;;;;6088225;23;19908;-84
2022/01/25 15:34:17;;;;;;;52.57;23.70;;;5.70;99.90;;;;;;6163984;23;20009;-84
2022/01/25 15:36:44;;;;;;;51.90;23.57;;;5.70;99.90;;;;;;6135382;23;20080;-82
2022/01/25 15:39:11;;;;;;;50.40;22.40;;;5.70;99.90;;;;;;6138163;23;20093;-84
2022/01/25 15:41:37;;;;;;;52.00;23.90;;;5.70;99.90;;;;;;6137488;23;20005;-85
2022/01/25 15:44:03;;;;;;;49.10;23.03;;;5.80;99.90;;;;;;6135051;23;20010;-82
2022/01/25 15:46:55;;;;;;;49.67;22.77;;;5.70;99.90;;;;;;6139911;23;20009;-81
2022/01/25 15:49:19;;;;;;;45.65;21.88;;;5.80;99.90;;;;;;6166649;23;20020;-83
2022/01/25 15:51:45;;;;;;;43.77;21.43;;;5.80;99.90;;;;;;6142689;23;20019;-83
2022/01/25 15:54:11;;;;;;;52.70;22.17;;;5.80;99.90;;;;;;6160023;23;20009;-82
2022/01/25 15:56:38;;;;;;;43.50;19.93;;;5.70;99.90;;;;;;6135096;23;20014;-82
2022/01/25 15:59:04;;;;;;;44.37;20.87;;;5.70;99.90;;;;;;6136670;23;20009;-82
2022/01/25 16:01:29;;;;;;;45.03;22.00;;;5.70;99.90;;;;;;6163028;23;20016;-83
2022/01/25 16:03:55;;;;;;;44.87;20.77;;;5.70;99.90;;;;;;6155353;23;20499;-83
2022/01/25 16:06:22;;;;;;;47.87;21.93;;;5.70;99.90;;;;;;6107128;23;20482;-83
2022/01/25 16:08:48;;;;;;;43.73;19.73;;;5.70;99.90;;;;;;6153426;23;20425;-82
2022/01/25 16:11:14;;;;;;;43.30;21.53;;;5.70;99.90;;;;;;6131073;23;20009;-83
2022/01/25 16:13:42;;;;;;;44.37;21.40;;;5.70;99.90;;;;;;6130348;23;20006;-83
2022/01/25 16:16:09;;;;;;;49.07;21.77;;;5.60;99.90;;;;;;6134537;23;20013;-83